Time;durP1;ratioP1;P1;durP2;ratioP2;P2;SDS_P1;SDS_P2;PMS_P1;PMS_P2;Temp;Humidity;BMP_temperature;BMP_pressure;BME280_temperature;BME280_humidity;BME280_pressure;Samples;Min_cycle;Max_cycle;Signal;HPM_P1;HPM_P2
2023/08/08 00:01:44;;;;;;;1999.90;999.90;;;14.40;99.90;;;;;;5094675;28;20486;-74
2023/08/08 00:04:10;;;;;;;1999.90;999.90;;;14.40;99.90;;;;;;5094116;28;20033;-74
2023/08/08 00:06:36;;;;;;;1999.90;999.90;;;14.40;99.90;;;;;;5094094;28;20037;-74
2023/08/08 00:09:03;;;;;;;1999.90;999.90;;;14.40;99.90;;;;;;5094458;28;20029;-74
2023/08/08 00:11:29;;;;;;;1999.90;999.90;;;14.40;99.90;;;;;;5095291;28;20037;-74
2023/08/08 00:13:55;;;;;;;1999.90;999.90;;;14.30;99.90;;;;;;5096296;28;20051;-75
2023/08/08 00:16:21;;;;;;;1999.90;999.90;;;14.20;99.90;;;;;;5097634;28;20035;-74
2023/08/08 00:18:46;;;;;;;1999.90;999.90;;;14.00;99.90;;;;;;5096226;28;20569;-74
2023/08/08 00:21:12;;;;;;;1999.90;999.90;;;13.90;99.90;;;;;;5097805;28;20032;-74
2023/08/08 00:23:38;;;;;;;1999.90;999.90;;;13.90;99.90;;;;;;5097649;28;20032;-74
2023/08/08 00:26:03;;;;;;;1999.90;999.90;;;13.80;99.90;;;;;;5097480;28;20086;-74
2023/08/08 00:28:29;;;;;;;1999.90;999.90;;;13.80;99.90;;;;;;5095571;28;20111;-74
2023/08/08 00:30:54;;;;;;;1999.90;999.90;;;13.70;99.90;;;;;;5097605;28;20066;-74
2023/08/08 00:33:20;;;;;;;1999.90;999.90;;;13.60;99.90;;;;;;5097576;28;20068;-74
2023/08/08 00:35:45;;;;;;;1999.90;999.90;;;13.60;99.90;;;;;;5097381;28;20032;-74
2023/08/08 00:38:11;;;;;;;1999.90;999.90;;;13.50;99.90;;;;;;5097797;28;20091;-74
2023/08/08 00:40:36;;;;;;;1999.90;999.90;;;13.60;99.90;;;;;;5098270;28;20448;-74
2023/08/08 00:43:02;;;;;;;1999.90;999.90;;;13.60;99.90;;;;;;5098438;28;20468;-74
2023/08/08 00:45:28;;;;;;;1999.90;999.90;;;13.60;99.90;;;;;;5097355;28;20440;-74
2023/08/08 00:47:53;;;;;;;1999.90;999.90;;;13.90;99.90;;;;;;5096905;28;20037;-74
2023/08/08 00:50:20;;;;;;;1999.90;999.90;;;13.80;99.90;;;;;;5097380;28;20559;-74
2023/08/08 00:52:46;;;;;;;1999.90;999.90;;;13.90;99.90;;;;;;5097024;28;20485;-74
2023/08/08 00:55:12;;;;;;;1999.90;999.90;;;13.90;99.90;;;;;;5097089;28;20032;-74
2023/08/08 00:57:38;;;;;;;1999.90;999.90;;;13.90;99.90;;;;;;5096814;28;20563;-75
2023/08/08 01:00:09;;;;;;;1999.90;999.90;;;14.00;99.90;;;;;;5095709;28;20481;-74
2023/08/08 01:02:34;;;;;;;1999.90;999.90;;;13.90;99.90;;;;;;5095718;28;20087;-75
2023/08/08 01:05:00;;;;;;;1999.90;999.90;;;13.90;99.90;;;;;;5096928;28;20382;-74
2023/08/08 01:07:48;;;;;;;1999.90;999.90;;;13.80;99.90;;;;;;5096435;28;20036;-74
2023/08/08 01:10:21;;;;;;;1999.90;999.90;;;13.60;99.90;;;;;;5095460;28;20029;-74
2023/08/08 01:12:54;;;;;;;1999.90;999.90;;;13.50;99.90;;;;;;5096791;28;20043;-75
2023/08/08 01:15:21;;;;;;;1999.90;999.90;;;13.40;99.90;;;;;;5096819;28;20090;-75
2023/08/08 01:17:47;;;;;;;1999.90;999.90;;;13.30;99.90;;;;;;5096648;28;20044;-74
2023/08/08 01:20:16;;;;;;;1999.90;999.90;;;13.10;99.90;;;;;;5096540;28;20487;-74
2023/08/08 01:23:11;;;;;;;1999.90;999.90;;;13.00;99.90;;;;;;5095996;28;20036;-74
2023/08/08 01:25:40;;;;;;;1999.90;999.90;;;12.90;99.90;;;;;;5096623;28;20024;-74
2023/08/08 01:28:06;;;;;;;1999.90;999.90;;;12.70;99.90;;;;;;5095543;28;20040;-74
2023/08/08 01:30:32;;;;;;;1999.90;999.90;;;12.70;99.90;;;;;;5096639;28;20111;-74
2023/08/08 01:32:58;;;;;;;1999.90;999.90;;;12.60;99.90;;;;;;5096167;28;20051;-74
2023/08/08 01:35:28;;;;;;;1999.90;999.90;;;12.60;99.90;;;;;;5096081;28;20031;-74
2023/08/08 01:38:02;;;;;;;1999.90;999.90;;;12.70;99.90;;;;;;5094884;28;20040;-74
2023/08/08 01:40:29;;;;;;;1999.90;999.90;;;12.80;99.90;;;;;;5096671;28;20033;-76
2023/08/08 01:42:56;;;;;;;1999.90;999.90;;;12.90;99.90;;;;;;5096230;28;20044;-74
2023/08/08 01:45:24;;;;;;;1999.90;999.90;;;13.00;99.90;;;;;;5096234;28;20044;-74
2023/08/08 01:47:51;;;;;;;1999.90;999.90;;;13.10;99.90;;;;;;5096003;28;20028;-74
2023/08/08 01:50:16;;;;;;;1999.90;999.90;;;13.10;99.90;;;;;;5096393;28;20028;-75
2023/08/08 01:52:42;;;;;;;1999.90;999.90;;;13.20;99.90;;;;;;5094720;28;20036;-74
2023/08/08 01:55:08;;;;;;;1999.90;999.90;;;13.20;99.90;;;;;;5096173;28;20052;-74
2023/08/08 01:57:34;;;;;;;1999.90;999.90;;;13.20;99.90;;;;;;5096211;28;20058;-74
2023/08/08 02:00:00;;;;;;;1999.90;999.90;;;13.20;99.90;;;;;;5096005;27;20474;-74
2023/08/08 02:02:25;;;;;;;1999.90;999.90;;;13.30;99.90;;;;;;5094661;28;20520;-74
2023/08/08 02:04:51;;;;;;;1999.90;999.90;;;13.20;99.90;;;;;;5094397;28;20038;-75
2023/08/08 02:07:16;;;;;;;1999.90;999.90;;;13.20;99.90;;;;;;5094157;28;20036;-75
2023/08/08 02:09:42;;;;;;;1999.90;999.90;;;13.20;99.90;;;;;;5094534;28;20119;-74
2023/08/08 02:12:07;;;;;;;1999.90;999.90;;;13.20;99.90;;;;;;5095985;28;20036;-74
2023/08/08 02:14:33;;;;;;;1999.90;999.90;;;13.20;99.90;;;;;;5094382;28;20040;-74
2023/08/08 02:16:58;;;;;;;1999.90;999.90;;;13.20;99.90;;;;;;5094326;28;20047;-74
2023/08/08 02:19:24;;;;;;;1999.90;999.90;;;13.20;99.90;;;;;;5096018;28;20029;-74
2023/08/08 02:21:50;;;;;;;1999.90;999.90;;;13.10;99.90;;;;;;5095583;28;20048;-74
2023/08/08 02:24:15;;;;;;;1999.90;999.90;;;13.10;99.90;;;;;;5095645;28;20044;-74
2023/08/08 02:26:41;;;;;;;1999.90;999.90;;;13.00;99.90;;;;;;5094891;28;20048;-74
2023/08/08 02:29:06;;;;;;;1999.90;999.90;;;13.00;99.90;;;;;;5126108;22;20517;-74
2023/08/08 02:31:32;;;;;;;1999.90;999.90;;;12.90;99.90;;;;;;5115533;28;20047;-74
2023/08/08 02:33:57;;;;;;;1999.90;999.90;;;13.00;99.90;;;;;;5112961;27;20564;-74
2023/08/08 02:36:23;;;;;;;1999.90;999.90;;;13.00;99.90;;;;;;5115714;28;20047;-74
2023/08/08 02:38:49;;;;;;;1999.90;999.90;;;12.90;99.90;;;;;;5115629;28;20030;-73
2023/08/08 02:41:15;;;;;;;1999.90;999.90;;;12.90;99.90;;;;;;5114383;28;20067;-74
2023/08/08 02:43:41;;;;;;;1999.90;999.90;;;12.80;99.90;;;;;;5115672;28;20024;-74
2023/08/08 02:46:06;;;;;;;1999.90;999.90;;;12.80;99.90;;;;;;5115134;27;20032;-74
2023/08/08 02:48:32;;;;;;;1999.90;999.90;;;12.60;99.90;;;;;;5113948;28;20032;-73
2023/08/08 02:50:57;;;;;;;1999.90;999.90;;;12.50;99.90;;;;;;5113935;28;20081;-74
2023/08/08 02:53:23;;;;;;;1999.90;999.90;;;12.50;99.90;;;;;;5115598;28;20508;-74
2023/08/08 02:55:49;;;;;;;1999.90;999.90;;;12.60;99.90;;;;;;5115196;28;20040;-73
2023/08/08 02:58:14;;;;;;;1999.90;999.90;;;12.70;99.90;;;;;;5114939;28;20028;-74
2023/08/08 03:00:40;;;;;;;1999.90;999.90;;;12.70;99.90;;;;;;5114097;28;20032;-73
2023/08/08 03:03:05;;;;;;;1999.90;999.90;;;12.70;99.90;;;;;;5115508;28;20393;-73
2023/08/08 03:05:31;;;;;;;1999.90;999.90;;;12.70;99.90;;;;;;5113605;28;20079;-74
2023/08/08 03:07:56;;;;;;;1999.90;999.90;;;12.70;99.90;;;;;;5115284;28;20042;-74
2023/08/08 03:10:22;;;;;;;1999.90;999.90;;;12.80;99.90;;;;;;5115359;28;20374;-73
2023/08/08 03:12:47;;;;;;;1999.90;999.90;;;12.80;99.90;;;;;;5113658;28;20412;-74
2023/08/08 03:15:13;;;;;;;1999.90;999.90;;;12.80;99.90;;;;;;5113533;28;20031;-74
2023/08/08 03:17:39;;;;;;;1999.90;999.90;;;12.90;99.90;;;;;;5113417;28;20032;-74
2023/08/08 03:20:08;;;;;;;1999.90;999.90;;;12.90;99.90;;;;;;5113678;28;20032;-73
2023/08/08 03:22:37;;;;;;;1999.90;999.90;;;13.00;99.90;;;;;;5115173;27;20519;-74
2023/08/08 03:25:06;;;;;;;1999.90;999.90;;;13.00;99.90;;;;;;5113356;28;20086;-74
2023/08/08 03:27:31;;;;;;;1999.90;999.90;;;13.00;99.90;;;;;;5114525;27;20098;-72
2023/08/08 03:29:57;;;;;;;1999.90;999.90;;;13.00;99.90;;;;;;5114265;28;20117;-74
2023/08/08 03:32:23;;;;;;;1999.90;999.90;;;12.90;99.90;;;;;;5115009;28;20444;-74
2023/08/08 03:34:48;;;;;;;1999.90;999.90;;;12.90;99.90;;;;;;5114657;28;20031;-73
2023/08/08 03:37:14;;;;;;;1999.90;999.90;;;12.80;99.90;;;;;;5114868;28;20155;-73
2023/08/08 03:39:40;;;;;;;1999.90;999.90;;;12.70;99.90;;;;;;5114767;28;20032;-74
2023/08/08 03:42:05;;;;;;;1999.90;999.90;;;12.60;99.90;;;;;;5114583;28;20032;-73
2023/08/08 03:44:31;;;;;;;1999.90;999.90;;;12.50;99.90;;;;;;5112906;28;20035;-74
2023/08/08 03:46:57;;;;;;;1999.90;999.90;;;12.40;99.90;;;;;;5116628;28;20489;-74
2023/08/08 03:49:22;;;;;;;1999.90;999.90;;;12.30;99.90;;;;;;5117754;28;20032;-74
2023/08/08 03:51:48;;;;;;;1999.90;999.90;;;12.20;99.90;;;;;;5118633;28;20027;-74
2023/08/08 03:54:15;;;;;;;1999.90;999.90;;;12.10;99.90;;;;;;5118246;28;20032;-73
2023/08/08 03:56:40;;;;;;;1999.90;999.90;;;12.00;99.90;;;;;;5118346;27;20080;-73
2023/08/08 03:59:06;;;;;;;1999.90;999.90;;;11.90;99.90;;;;;;5118153;27;20032;-73
2023/08/08 04:01:32;;;;;;;1999.90;999.90;;;11.90;99.90;;;;;;5118092;27;20044;-74
2023/08/08 04:03:58;;;;;;;1999.90;999.90;;;11.80;99.90;;;;;;5117770;27;20060;-73
2023/08/08 04:06:24;;;;;;;1999.90;999.90;;;11.90;99.90;;;;;;5118360;27;20032;-74
2023/08/08 04:08:49;;;;;;;1999.90;999.90;;;11.80;99.90;;;;;;5117938;28;20036;-74
2023/08/08 04:11:15;;;;;;;1999.90;999.90;;;11.80;99.90;;;;;;5116690;28;20118;-73
2023/08/08 04:13:41;;;;;;;1999.90;999.90;;;11.70;99.90;;;;;;5116764;28;20032;-73
2023/08/08 04:16:06;;;;;;;1999.90;999.90;;;11.80;99.90;;;;;;5117885;28;20032;-74
2023/08/08 04:18:32;;;;;;;1999.90;999.90;;;11.70;99.90;;;;;;5117733;28;20039;-73
2023/08/08 04:20:57;;;;;;;1999.90;999.90;;;11.70;99.90;;;;;;5118172;28;20044;-74
2023/08/08 04:23:25;;;;;;;1999.90;999.90;;;11.70;99.90;;;;;;5117991;28;20044;-73
2023/08/08 04:25:51;;;;;;;1999.90;999.90;;;11.70;99.90;;;;;;5117549;27;20031;-74
2023/08/08 04:28:17;;;;;;;1999.90;999.90;;;11.70;99.90;;;;;;5116156;28;20413;-73
2023/08/08 04:30:42;;;;;;;1999.90;999.90;;;11.70;99.90;;;;;;5115966;28;20039;-72
2023/08/08 04:33:08;;;;;;;1999.90;999.90;;;11.70;99.90;;;;;;5117684;28;20743;-73
2023/08/08 04:35:33;;;;;;;1999.90;999.90;;;11.70;99.90;;;;;;5117880;28;20028;-73
2023/08/08 04:37:59;;;;;;;1999.90;999.90;;;11.70;99.90;;;;;;5117550;28;20068;-73
2023/08/08 04:40:24;;;;;;;1999.90;999.90;;;11.70;99.90;;;;;;5117632;28;20063;-74
2023/08/08 04:42:51;;;;;;;1999.90;999.90;;;11.70;99.90;;;;;;5117595;28;20416;-73
2023/08/08 04:45:17;;;;;;;1999.90;999.90;;;11.70;99.90;;;;;;5115989;28;20028;-76
2023/08/08 04:47:42;;;;;;;1999.90;999.90;;;11.70;99.90;;;;;;5117018;28;20371;-72
2023/08/08 04:50:08;;;;;;;1999.90;999.90;;;11.70;99.90;;;;;;5116144;28;20531;-72
2023/08/08 04:52:34;;;;;;;1999.90;999.90;;;11.70;99.90;;;;;;5117569;28;20043;-72
2023/08/08 04:54:59;;;;;;;1999.90;999.90;;;11.70;99.90;;;;;;5117384;28;20039;-72
2023/08/08 04:57:25;;;;;;;1999.90;999.90;;;11.70;99.90;;;;;;5115963;27;20085;-72
2023/08/08 04:59:50;;;;;;;1999.90;999.90;;;11.70;99.90;;;;;;5117304;28;20070;-72
2023/08/08 05:02:16;;;;;;;1999.90;999.90;;;11.70;99.90;;;;;;5115566;28;20032;-72
2023/08/08 05:04:41;;;;;;;1999.90;999.90;;;11.70;99.90;;;;;;5117028;27;20060;-72
2023/08/08 05:07:07;;;;;;;1999.90;999.90;;;11.80;99.90;;;;;;5116953;28;20501;-72
2023/08/08 05:09:33;;;;;;;1999.90;999.90;;;11.90;99.90;;;;;;5117159;28;20067;-72
2023/08/08 05:11:58;;;;;;;1999.90;999.90;;;12.00;99.90;;;;;;5117229;28;20485;-72
2023/08/08 05:14:24;;;;;;;1999.90;999.90;;;12.00;99.90;;;;;;5115427;28;20497;-71
2023/08/08 05:16:49;;;;;;;1999.90;999.90;;;12.10;99.90;;;;;;5116820;28;20509;-72
2023/08/08 05:19:15;;;;;;;1999.90;999.90;;;12.20;99.90;;;;;;5116907;28;20024;-72
2023/08/08 05:21:41;;;;;;;1999.90;999.90;;;12.30;99.90;;;;;;5115377;28;20515;-72
2023/08/08 05:24:06;;;;;;;1999.90;999.90;;;12.50;99.90;;;;;;5116701;28;20039;-72
2023/08/08 05:26:32;;;;;;;1999.90;999.90;;;12.50;99.90;;;;;;5116866;28;20492;-72
2023/08/08 05:28:57;;;;;;;1999.90;999.90;;;12.60;99.90;;;;;;5115696;28;20036;-72
2023/08/08 05:31:23;;;;;;;1999.90;999.90;;;12.70;99.90;;;;;;5116450;28;20031;-73
2023/08/08 05:33:49;;;;;;;1999.90;999.90;;;13.00;99.90;;;;;;5113147;27;20028;-72
2023/08/08 05:36:14;;;;;;;1999.90;999.90;;;13.20;99.90;;;;;;5114661;28;20036;-72
2023/08/08 05:38:41;;;;;;;1999.90;999.90;;;13.40;99.90;;;;;;5116440;28;20028;-70
2023/08/08 05:41:07;;;;;;;1999.90;999.90;;;13.50;99.90;;;;;;5116795;27;20040;-72
2023/08/08 05:43:32;;;;;;;1999.90;999.90;;;13.50;99.90;;;;;;5115846;27;20036;-72
2023/08/08 05:45:58;;;;;;;1999.90;999.90;;;13.40;99.90;;;;;;5116331;27;20079;-72
2023/08/08 05:48:23;;;;;;;1999.90;999.90;;;13.50;99.90;;;;;;5115970;28;20485;-72
2023/08/08 05:50:49;;;;;;;1999.90;999.90;;;13.80;99.90;;;;;;5116493;28;20555;-72
2023/08/08 05:53:14;;;;;;;1999.90;999.90;;;14.10;99.90;;;;;;5114878;28;20044;-73
2023/08/08 05:55:43;;;;;;;1999.90;999.90;;;14.10;99.90;;;;;;5116005;28;20401;-72
2023/08/08 05:58:09;;;;;;;1999.90;999.90;;;14.10;99.90;;;;;;5114718;28;20032;-72
2023/08/08 06:00:34;;;;;;;1999.90;999.90;;;14.20;99.90;;;;;;5116563;28;20032;-72
2023/08/08 06:03:00;;;;;;;1999.90;999.90;;;14.20;99.90;;;;;;5116518;28;20409;-72
2023/08/08 06:05:26;;;;;;;1999.90;999.90;;;14.30;99.90;;;;;;5116109;27;20036;-72
2023/08/08 06:07:52;;;;;;;1999.90;999.90;;;14.30;99.90;;;;;;5115671;27;20544;-77
2023/08/08 06:10:17;;;;;;;1999.90;999.90;;;14.30;99.90;;;;;;5116381;28;20111;-71
2023/08/08 06:12:50;;;;;;;1999.90;999.90;;;14.30;99.90;;;;;;5116311;28;20431;-71
2023/08/08 06:15:16;;;;;;;1999.90;999.90;;;14.30;99.90;;;;;;5116047;27;20032;-72
2023/08/08 06:17:42;;;;;;;1999.90;999.90;;;14.30;99.90;;;;;;5116090;28;20039;-72
2023/08/08 06:20:09;;;;;;;1999.90;999.90;;;14.30;99.90;;;;;;5116084;28;20047;-71
2023/08/08 06:22:35;;;;;;;1999.90;999.90;;;14.40;99.90;;;;;;5116043;27;20126;-72
2023/08/08 06:25:00;;;;;;;1999.90;999.90;;;14.50;99.90;;;;;;5115516;28;20127;-72
2023/08/08 06:27:26;;;;;;;1999.90;999.90;;;14.50;99.90;;;;;;5115836;28;20378;-74
2023/08/08 06:29:51;;;;;;;1999.90;999.90;;;14.60;99.90;;;;;;5113953;28;20036;-71
2023/08/08 06:32:17;;;;;;;1999.90;999.90;;;14.70;99.90;;;;;;5114515;27;20029;-71
2023/08/08 06:34:42;;;;;;;1999.90;999.90;;;14.80;99.90;;;;;;5115562;27;20044;-71
2023/08/08 06:37:08;;;;;;;1999.90;999.90;;;14.90;99.90;;;;;;5113577;27;20395;-71
2023/08/08 06:39:34;;;;;;;1999.90;999.90;;;14.90;99.90;;;;;;5117796;27;20028;-73
2023/08/08 06:42:00;;;;;;;1999.90;999.90;;;15.00;99.90;;;;;;5113753;28;20032;-72
2023/08/08 06:44:25;;;;;;;1999.90;999.90;;;15.10;99.90;;;;;;5115489;28;20036;-71
2023/08/08 06:46:51;;;;;;;1999.90;999.90;;;15.30;99.90;;;;;;5111314;28;20039;-71
2023/08/08 06:49:17;;;;;;;1999.90;999.90;;;15.40;99.90;;;;;;5112318;28;20032;-71
2023/08/08 06:51:42;;;;;;;1999.90;999.90;;;15.50;99.90;;;;;;5108109;27;20094;-72
2023/08/08 06:54:08;;;;;;;1999.90;999.90;;;15.50;99.90;;;;;;5092026;28;20032;-71
2023/08/08 06:56:33;;;;;;;1999.90;999.90;;;15.70;99.90;;;;;;5100045;28;20040;-72
2023/08/08 06:58:59;;;;;;;1999.90;999.90;;;15.90;99.90;;;;;;5114435;28;20393;-71
2023/08/08 07:01:24;;;;;;;1999.90;999.90;;;16.10;99.90;;;;;;5115109;28;20090;-71
2023/08/08 07:03:50;;;;;;;1999.90;999.90;;;16.20;99.90;;;;;;5115081;27;20094;-72
2023/08/08 07:06:18;;;;;;;1999.90;999.90;;;16.40;99.90;;;;;;5115126;27;20039;-71
2023/08/08 07:08:43;;;;;;;1999.90;999.90;;;16.50;99.90;;;;;;5113445;28;20036;-71
2023/08/08 07:11:09;;;;;;;1999.90;999.90;;;16.50;99.90;;;;;;5115154;28;20097;-71
2023/08/08 07:13:34;;;;;;;1999.90;999.90;;;16.70;99.90;;;;;;5115223;28;20036;-71
2023/08/08 07:16:00;;;;;;;1999.90;999.90;;;16.80;99.90;;;;;;5114912;28;20028;-71
2023/08/08 07:18:26;;;;;;;1999.90;999.90;;;16.90;99.90;;;;;;5115116;27;20115;-71
2023/08/08 07:20:51;;;;;;;1999.90;999.90;;;17.00;99.90;;;;;;5114677;27;20031;-71
2023/08/08 07:23:20;;;;;;;1999.90;999.90;;;17.10;99.90;;;;;;5115132;28;20165;-71
2023/08/08 07:25:46;;;;;;;1999.90;999.90;;;17.20;99.90;;;;;;5114561;28;20059;-71
2023/08/08 07:28:14;;;;;;;1999.90;999.90;;;17.40;99.90;;;;;;5114862;27;20375;-71
2023/08/08 07:30:43;;;;;;;1999.90;999.90;;;17.60;99.90;;;;;;5114888;27;20127;-71
2023/08/08 07:33:08;;;;;;;1999.90;999.90;;;17.80;99.90;;;;;;5114960;27;20464;-71
2023/08/08 07:35:34;;;;;;;1999.90;999.90;;;17.90;99.90;;;;;;5115058;27;20032;-71
2023/08/08 07:38:00;;;;;;;1999.90;999.90;;;18.00;99.90;;;;;;5114751;28;20040;-72
2023/08/08 07:40:25;;;;;;;1999.90;999.90;;;18.10;99.90;;;;;;5114996;27;20032;-71
2023/08/08 07:42:51;;;;;;;1999.90;999.90;;;18.30;99.90;;;;;;5114846;28;20047;-71
2023/08/08 07:45:17;;;;;;;1999.90;999.90;;;18.30;99.90;;;;;;5114224;28;20028;-71
2023/08/08 07:47:42;;;;;;;1999.90;999.90;;;18.40;99.90;;;;;;5114631;28;20042;-71
2023/08/08 07:50:09;;;;;;;1999.90;999.90;;;18.50;99.90;;;;;;5114804;28;20111;-71
2023/08/08 07:52:36;;;;;;;1999.90;999.90;;;18.50;99.90;;;;;;5114442;27;20117;-71
2023/08/08 07:55:03;;;;;;;1999.90;999.90;;;18.60;99.90;;;;;;5112581;28;20127;-71
2023/08/08 07:57:30;;;;;;;1999.90;999.90;;;18.90;99.90;;;;;;5114475;27;20036;-71
2023/08/08 07:59:56;;;;;;;1999.90;999.90;;;19.10;99.90;;;;;;5114853;27;20102;-71
2023/08/08 08:02:21;;;;;;;1999.90;999.90;;;19.40;99.90;;;;;;5114834;28;20086;-71
2023/08/08 08:04:47;;;;;;;1999.90;999.90;;;19.70;99.90;;;;;;5114533;27;20362;-71
2023/08/08 08:07:13;;;;;;;1999.90;999.90;;;20.10;99.90;;;;;;5114420;28;20374;-72
2023/08/08 08:09:42;;;;;;;1999.90;999.90;;;20.20;99.90;;;;;;5114643;28;20510;-71
2023/08/08 08:12:08;;;;;;;1999.90;999.90;;;20.20;99.90;;;;;;5114309;27;20094;-71
2023/08/08 08:14:33;;;;;;;1999.90;999.90;;;20.40;99.90;;;;;;5114296;27;20051;-71
2023/08/08 08:16:59;;;;;;;1999.90;999.90;;;20.30;99.90;;;;;;5114557;28;20111;-71
2023/08/08 08:19:33;;;;;;;1999.90;999.90;;;20.30;99.90;;;;;;5114362;28;20024;-71
2023/08/08 08:21:58;;;;;;;1999.90;999.90;;;20.10;99.90;;;;;;5112920;28;20043;-71
2023/08/08 08:24:24;;;;;;;1999.90;999.90;;;20.10;99.90;;;;;;5114138;27;20051;-72
2023/08/08 08:26:50;;;;;;;1999.90;999.90;;;20.00;99.90;;;;;;5112180;28;20048;-71
2023/08/08 08:29:15;;;;;;;1999.90;999.90;;;19.90;99.90;;;;;;5118740;22;20405;-75
2023/08/08 08:31:41;;;;;;;1999.90;999.90;;;19.70;99.90;;;;;;5092282;28;20059;-76
2023/08/08 08:34:06;;;;;;;1999.90;999.90;;;19.60;99.90;;;;;;5095248;28;20036;-75
2023/08/08 08:36:32;;;;;;;1999.90;999.90;;;19.70;99.90;;;;;;5097330;28;20108;-76
2023/08/08 08:38:57;;;;;;;1999.90;999.90;;;19.80;99.90;;;;;;5096996;28;20111;-76
2023/08/08 08:41:27;;;;;;;1999.90;999.90;;;19.70;99.90;;;;;;5097215;28;20036;-75
2023/08/08 08:43:54;;;;;;;1999.90;999.90;;;19.90;99.90;;;;;;5096837;28;20120;-75
2023/08/08 08:46:22;;;;;;;1999.90;999.90;;;20.40;99.90;;;;;;5096850;28;20056;-75
2023/08/08 08:48:49;;;;;;;1999.90;999.90;;;20.60;99.90;;;;;;5096678;28;20041;-76
2023/08/08 08:51:16;;;;;;;1999.90;999.90;;;20.50;99.90;;;;;;5097117;28;20036;-76
2023/08/08 08:53:43;;;;;;;1999.90;999.90;;;20.30;99.90;;;;;;5095519;28;20086;-75
2023/08/08 08:56:08;;;;;;;1999.90;999.90;;;20.10;99.90;;;;;;5096594;28;20021;-75
2023/08/08 08:58:34;;;;;;;1999.90;999.90;;;20.10;99.90;;;;;;5097156;28;20043;-75
2023/08/08 09:01:00;;;;;;;1999.90;999.90;;;20.20;99.90;;;;;;5096898;28;20043;-75
2023/08/08 09:03:26;;;;;;;1999.90;999.90;;;19.90;99.90;;;;;;5096869;28;20040;-76
2023/08/08 09:05:54;;;;;;;1999.90;999.90;;;19.80;99.90;;;;;;5096662;28;20028;-75
2023/08/08 09:08:20;;;;;;;1999.90;999.90;;;20.00;99.90;;;;;;5106001;28;20067;-75
2023/08/08 09:10:45;;;;;;;1999.90;999.90;;;20.20;99.90;;;;;;5098530;28;20040;-74
2023/08/08 09:13:11;;;;;;;1999.90;999.90;;;20.40;99.90;;;;;;5097762;28;20032;-74
2023/08/08 09:15:37;;;;;;;1999.90;999.90;;;20.50;99.90;;;;;;5096455;28;20082;-74
2023/08/08 09:18:02;;;;;;;1999.90;999.90;;;20.50;99.90;;;;;;5097085;28;20124;-75
2023/08/08 09:20:29;;;;;;;1999.90;999.90;;;20.70;99.90;;;;;;5095080;28;20028;-75
2023/08/08 09:22:54;;;;;;;1999.90;999.90;;;20.80;99.90;;;;;;5096713;28;20034;-75
2023/08/08 09:25:20;;;;;;;1999.90;999.90;;;20.80;99.90;;;;;;5095202;28;20460;-75
2023/08/08 09:27:47;;;;;;;1999.90;999.90;;;20.70;99.90;;;;;;5096252;28;20040;-75
2023/08/08 09:30:12;;;;;;;1999.90;999.90;;;20.50;99.90;;;;;;5096476;28;20086;-75
2023/08/08 09:32:38;;;;;;;1999.90;999.90;;;20.50;99.90;;;;;;5095273;28;20444;-75
2023/08/08 09:35:09;;;;;;;1999.90;999.90;;;20.40;99.90;;;;;;5096344;28;20078;-75
2023/08/08 09:37:35;;;;;;;1999.90;999.90;;;20.60;99.90;;;;;;5096638;28;20036;-75
2023/08/08 09:40:03;;;;;;;1999.90;999.90;;;20.90;99.90;;;;;;5096456;28;20067;-75
2023/08/08 09:42:29;;;;;;;1999.90;999.90;;;20.60;99.90;;;;;;5096250;28;20035;-75
2023/08/08 09:44:58;;;;;;;1999.90;999.90;;;20.60;99.90;;;;;;5095664;28;20382;-75
2023/08/08 09:47:30;;;;;;;1999.90;999.90;;;21.00;99.60;;;;;;5096025;28;20111;-75
2023/08/08 09:50:00;;;;;;;1999.90;999.90;;;20.90;99.90;;;;;;5096239;28;20107;-75
2023/08/08 09:52:27;;;;;;;1999.90;999.90;;;20.70;99.50;;;;;;5094657;28;20036;-75
2023/08/08 09:54:53;;;;;;;1999.90;999.90;;;20.60;99.30;;;;;;5095908;28;20024;-75
2023/08/08 09:57:20;;;;;;;1999.90;999.90;;;20.60;99.30;;;;;;5096147;28;20500;-75
2023/08/08 09:59:49;;;;;;;1999.90;999.90;;;20.50;99.10;;;;;;5096242;28;20453;-78
2023/08/08 10:02:16;;;;;;;1999.90;999.90;;;20.60;98.60;;;;;;5095970;28;20033;-78
2023/08/08 10:04:42;;;;;;;1999.90;999.90;;;20.50;98.80;;;;;;5095882;28;20028;-74
2023/08/08 10:07:08;;;;;;;1999.90;999.90;;;20.90;99.00;;;;;;5095604;28;20037;-75
2023/08/08 10:09:34;;;;;;;1999.90;999.90;;;21.40;98.40;;;;;;5095206;28;20470;-75
2023/08/08 10:12:00;;;;;;;1999.90;999.90;;;21.50;96.50;;;;;;5095739;28;20072;-76
2023/08/08 10:14:34;;;;;;;1999.90;999.90;;;21.80;97.40;;;;;;5094095;28;20086;-76
2023/08/08 10:17:02;;;;;;;1999.90;999.90;;;21.70;95.70;;;;;;5095748;28;20032;-77
2023/08/08 10:19:29;;;;;;;1999.90;999.90;;;21.90;94.50;;;;;;5095209;28;20119;-76
2023/08/08 10:22:05;;;;;;;1999.90;999.90;;;22.10;95.00;;;;;;5095732;28;20040;-76
2023/08/08 10:24:35;;;;;;;1999.90;999.90;;;22.10;94.00;;;;;;5093802;28;20033;-76
2023/08/08 10:27:02;;;;;;;1999.90;999.90;;;21.90;95.90;;;;;;5095739;28;20063;-76
2023/08/08 10:29:29;;;;;;;1999.90;999.90;;;22.30;94.80;;;;;;5094908;28;20416;-75
2023/08/08 10:32:03;;;;;;;1999.90;999.90;;;22.00;94.00;;;;;;5094127;28;20477;-75
2023/08/08 10:34:46;;;;;;;1999.90;999.90;;;21.60;94.10;;;;;;5094690;28;20129;-76
2023/08/08 10:37:14;;;;;;;1999.90;999.90;;;22.00;94.40;;;;;;5093894;28;20383;-76
2023/08/08 10:40:05;;;;;;;1999.90;999.90;;;22.00;94.20;;;;;;5095255;28;20183;-76
2023/08/08 10:42:31;;;;;;;1999.90;999.90;;;21.60;95.30;;;;;;5091816;28;20127;-74
2023/08/08 10:44:59;;;;;;;1999.90;999.90;;;21.40;95.00;;;;;;5076583;28;20067;-76
2023/08/08 10:47:35;;;;;;;1999.90;999.90;;;21.40;95.50;;;;;;5081427;28;20045;-75
2023/08/08 10:50:11;;;;;;;1999.90;999.90;;;21.30;94.30;;;;;;5093912;28;20039;-75
2023/08/08 10:52:54;;;;;;;1999.90;999.90;;;21.30;94.50;;;;;;5095203;28;20028;-74
2023/08/08 10:55:22;;;;;;;1999.90;999.90;;;21.30;95.30;;;;;;5093880;28;20868;-77
2023/08/08 10:58:08;;;;;;;1999.90;999.90;;;21.60;95.60;;;;;;5088658;28;20674;-75
2023/08/08 11:00:35;;;;;;;1999.90;999.90;;;21.80;93.50;;;;;;5074563;28;20498;-75
2023/08/08 11:03:04;;;;;;;1999.90;999.90;;;21.90;95.00;;;;;;5073261;28;20063;-76
2023/08/08 11:05:31;;;;;;;1999.90;999.90;;;22.30;94.20;;;;;;5074338;28;20109;-76
2023/08/08 11:07:57;;;;;;;1999.90;999.90;;;22.90;91.50;;;;;;5075588;28;20036;-75
2023/08/08 11:10:23;;;;;;;1999.90;999.90;;;22.90;91.20;;;;;;5094884;28;20040;-75
2023/08/08 11:12:54;;;;;;;1999.90;999.90;;;23.10;91.00;;;;;;5095345;28;20385;-75
2023/08/08 11:15:20;;;;;;;1999.90;999.90;;;23.20;90.70;;;;;;5094434;28;20033;-74
2023/08/08 11:17:46;;;;;;;1999.90;999.90;;;22.60;90.60;;;;;;5093838;28;20036;-75
2023/08/08 11:20:11;;;;;;;1999.90;999.90;;;22.70;91.50;;;;;;5095187;28;20068;-74
2023/08/08 11:22:37;;;;;;;1999.90;999.90;;;22.70;91.40;;;;;;5096057;28;20044;-74
2023/08/08 11:25:04;;;;;;;1999.90;999.90;;;22.60;93.10;;;;;;5094690;28;20028;-74
2023/08/08 11:27:29;;;;;;;1999.90;999.90;;;22.40;92.30;;;;;;5094422;28;20524;-75
2023/08/08 11:29:57;;;;;;;1999.90;999.90;;;22.60;90.90;;;;;;5094961;28;20032;-74
2023/08/08 11:32:25;;;;;;;1999.90;999.90;;;22.70;90.30;;;;;;5094705;28;20535;-75
2023/08/08 11:34:51;;;;;;;1999.90;999.90;;;22.80;90.30;;;;;;5092368;28;20514;-75
2023/08/08 11:37:17;;;;;;;1999.90;999.90;;;23.00;90.70;;;;;;5092892;28;20127;-75
2023/08/08 11:39:43;;;;;;;1999.90;999.90;;;22.90;91.30;;;;;;5094572;28;20039;-75
2023/08/08 11:42:09;;;;;;;1999.90;999.90;;;23.10;91.50;;;;;;5093236;28;20086;-75
2023/08/08 11:44:34;;;;;;;1999.90;999.90;;;22.80;91.70;;;;;;5094260;28;20073;-75
2023/08/08 11:47:01;;;;;;;1999.90;999.90;;;23.20;90.00;;;;;;5094677;28;20094;-75
2023/08/08 11:49:27;;;;;;;1999.90;999.90;;;23.10;90.60;;;;;;5095132;28;20048;-75
2023/08/08 11:51:55;;;;;;;1999.90;999.90;;;23.20;88.80;;;;;;5094630;28;20508;-76
2023/08/08 11:54:21;;;;;;;1999.90;999.90;;;23.20;84.90;;;;;;5094650;28;20092;-75
2023/08/08 11:56:46;;;;;;;1999.90;999.90;;;23.60;87.10;;;;;;5094924;28;20112;-75